createdAt,value
2023-05-04T00:01:20.884Z,2.67
2023-05-04T00:06:22.625Z,2.70
2023-05-04T00:11:25.954Z,2.30
2023-05-04T00:16:27.744Z,2.60
2023-05-04T00:21:29.495Z,2.50
2023-05-04T00:26:32.566Z,2.60
2023-05-04T00:31:34.669Z,3.27
2023-05-04T00:36:37.606Z,3.00
2023-05-04T00:41:41.069Z,2.70
2023-05-04T00:46:42.869Z,2.30
2023-05-04T00:51:44.604Z,3.03
2023-05-04T00:56:47.647Z,2.80
2023-05-04T01:01:49.530Z,2.60
2023-05-04T01:06:55.561Z,3.60
2023-05-04T01:12:01.176Z,2.80
2023-05-04T01:17:03.953Z,3.10
2023-05-04T01:22:07.172Z,3.20
2023-05-04T01:27:09.702Z,2.60
2023-05-04T01:32:11.903Z,2.90
2023-05-04T01:37:14.970Z,3.20
2023-05-04T01:42:16.702Z,3.00
2023-05-04T01:47:18.768Z,3.00
2023-05-04T01:52:21.799Z,3.10
2023-05-04T01:57:23.535Z,2.90
2023-05-04T02:02:25.633Z,2.50
2023-05-04T02:07:28.746Z,3.23
2023-05-04T02:12:30.551Z,2.83
2023-05-04T02:17:33.832Z,2.63
2023-05-04T02:22:36.891Z,2.23
2023-05-04T02:27:38.630Z,3.63
2023-05-04T02:32:41.061Z,2.67
2023-05-04T02:37:44.239Z,2.90
2023-05-04T02:42:45.961Z,3.13
2023-05-04T02:47:47.691Z,3.10
2023-05-04T02:52:50.747Z,3.10
2023-05-04T02:57:52.469Z,2.97
2023-05-04T03:02:54.186Z,3.03
2023-05-04T03:07:57.247Z,3.10
2023-05-04T03:13:03.768Z,2.93
2023-05-04T03:18:06.138Z,3.27
2023-05-04T03:23:09.705Z,3.83
2023-05-04T03:28:11.769Z,3.00
2023-05-04T03:33:13.633Z,3.20
2023-05-04T03:38:17.226Z,2.80
2023-05-04T03:43:19.034Z,3.40
2023-05-04T03:48:20.971Z,2.97
2023-05-04T03:53:25.466Z,3.10
2023-05-04T03:58:27.312Z,3.20
2023-05-04T04:03:29.335Z,3.17
2023-05-04T04:08:33.214Z,3.30
2023-05-04T04:13:35.007Z,3.30
2023-05-04T04:18:36.805Z,3.07
2023-05-04T04:23:39.864Z,3.33
2023-05-04T04:28:41.630Z,2.97
2023-05-04T04:33:43.785Z,3.17
2023-05-04T04:38:47.459Z,3.07
2023-05-04T04:43:49.224Z,3.13
2023-05-04T04:48:52.472Z,3.70
2023-05-04T04:53:55.502Z,3.23
2023-05-04T04:58:57.710Z,3.50
2023-05-04T05:03:59.410Z,3.37
2023-05-04T05:09:02.650Z,3.40
2023-05-04T05:14:04.371Z,4.10
2023-05-04T05:19:06.040Z,3.63
2023-05-04T05:24:09.115Z,3.80
2023-05-04T05:29:11.149Z,3.70
2023-05-04T05:34:12.858Z,3.13
2023-05-04T05:39:16.310Z,3.73
2023-05-04T05:44:18.028Z,3.30
2023-05-04T05:49:19.754Z,2.97
2023-05-04T05:54:26.149Z,3.60
2023-05-04T05:59:27.865Z,3.30
2023-05-04T06:04:29.569Z,3.50
2023-05-04T06:09:32.611Z,3.53
2023-05-04T06:14:34.367Z,3.20
2023-05-04T06:19:37.252Z,3.00
2023-05-04T06:24:40.322Z,3.40
2023-05-04T06:29:42.150Z,3.20
2023-05-04T06:34:43.835Z,3.87
2023-05-04T06:39:47.028Z,2.87
2023-05-04T06:44:48.751Z,3.00
2023-05-04T06:49:50.474Z,3.93
2023-05-04T06:54:53.553Z,3.83
2023-05-04T06:59:55.282Z,3.70
2023-05-04T07:04:57.412Z,3.33
2023-05-04T07:10:00.440Z,4.00
2023-05-04T07:15:02.180Z,3.50
2023-05-04T07:20:04.774Z,3.80
2023-05-04T07:25:08.640Z,3.93
2023-05-04T07:30:11.204Z,3.30
2023-05-04T07:35:13.197Z,3.53
2023-05-04T07:40:16.664Z,3.40
2023-05-04T07:45:18.567Z,2.80
2023-05-04T07:50:20.597Z,2.77
2023-05-04T07:55:24.672Z,3.00
2023-05-04T08:00:26.589Z,2.93
2023-05-04T08:05:28.276Z,3.00
2023-05-04T08:10:31.344Z,2.80
2023-05-04T08:15:33.052Z,2.80
2023-05-04T08:20:34.748Z,2.90
2023-05-04T08:25:37.775Z,2.92
2023-05-04T08:30:39.481Z,2.50
2023-05-04T08:35:41.250Z,3.00
2023-05-04T08:40:44.306Z,2.87
2023-05-04T08:45:46.102Z,2.33
2023-05-04T08:50:47.863Z,2.43
2023-05-04T08:55:50.926Z,2.30
2023-05-04T09:00:53.416Z,2.57
2023-05-04T09:05:55.304Z,2.90
2023-05-04T09:10:58.414Z,2.10
2023-05-04T09:16:00.278Z,2.30
2023-05-04T09:21:02.022Z,2.75
2023-05-04T09:26:05.035Z,2.78
2023-05-04T09:31:07.422Z,2.67
2023-05-04T09:36:14.158Z,3.10
2023-05-04T09:41:17.238Z,2.88
2023-05-04T09:46:19.172Z,4.70
2023-05-04T09:51:22.539Z,2.80
2023-05-04T09:56:33.312Z,2.88
2023-05-04T10:01:35.029Z,2.90
2023-05-04T10:06:37.646Z,2.90
2023-05-04T10:11:40.676Z,3.40
2023-05-04T10:16:46.927Z,3.33
2023-05-04T10:21:59.273Z,3.70
2023-05-04T10:27:05.536Z,3.17
2023-05-04T10:32:17.232Z,3.38
2023-05-04T10:37:19.440Z,3.58
2023-05-04T10:42:22.577Z,2.85
2023-05-04T10:47:27.941Z,4.00
2023-05-04T10:52:30.178Z,3.63
2023-05-04T10:57:33.214Z,3.03
2023-05-04T11:02:35.141Z,3.57
2023-05-04T11:07:38.164Z,3.27
2023-05-04T11:12:42.825Z,3.57
2023-05-04T11:17:45.159Z,3.33
2023-05-04T11:22:47.383Z,3.70
2023-05-04T11:27:50.486Z,3.93
2023-05-04T11:32:54.027Z,4.40
2023-05-04T11:37:55.818Z,4.17
2023-05-04T11:42:59.081Z,4.33
2023-05-04T11:48:00.995Z,4.30
2023-05-04T11:53:04.042Z,3.93
2023-05-04T11:58:08.024Z,4.77
2023-05-04T12:03:12.891Z,5.73
2023-05-04T12:08:22.434Z,5.13
2023-05-04T12:13:25.554Z,5.60
2023-05-04T12:18:29.685Z,4.67
2023-05-04T12:23:31.761Z,4.77
2023-05-04T12:28:35.695Z,4.33
2023-05-04T12:33:37.525Z,6.10
2023-05-04T12:38:39.227Z,4.60
2023-05-04T12:43:42.960Z,5.13
2023-05-04T12:48:44.642Z,5.60
2023-05-04T12:53:46.431Z,5.30
2023-05-04T12:58:49.445Z,5.17
2023-05-04T13:03:51.343Z,4.90
2023-05-04T13:08:53.127Z,5.43
2023-05-04T13:13:56.344Z,4.60
2023-05-04T13:18:58.082Z,4.60
2023-05-04T13:24:00.342Z,4.50
2023-05-04T13:29:04.369Z,6.00
2023-05-04T13:34:06.139Z,5.13
2023-05-04T13:39:07.973Z,4.47
2023-05-04T13:44:11.160Z,4.60
2023-05-04T13:49:12.859Z,4.70
2023-05-04T13:54:14.550Z,5.07
2023-05-04T13:59:17.583Z,4.70
2023-05-04T14:04:19.326Z,4.00
2023-05-04T14:09:21.125Z,4.90
2023-05-04T14:14:24.187Z,4.53
2023-05-04T14:19:26.923Z,4.90
2023-05-04T14:24:29.505Z,4.50
2023-05-04T14:29:33.512Z,4.20
2023-05-04T14:34:36.056Z,4.00
2023-05-04T14:39:39.332Z,4.17
2023-05-04T14:44:42.422Z,4.67
2023-05-04T14:49:44.120Z,3.90
2023-05-04T14:54:46.152Z,4.30
2023-05-04T14:59:49.163Z,4.37
2023-05-04T15:04:50.904Z,4.30
2023-05-04T15:09:52.646Z,3.60
2023-05-04T15:14:55.741Z,4.13
2023-05-04T15:19:57.491Z,4.40
2023-05-04T15:24:59.242Z,3.97
2023-05-04T15:30:02.269Z,4.57
2023-05-04T15:35:06.379Z,4.30
2023-05-04T15:40:09.368Z,4.23
2023-05-04T15:45:12.766Z,4.40
2023-05-04T15:50:14.507Z,4.60
2023-05-04T15:55:24.683Z,3.87
2023-05-04T16:00:28.721Z,3.67
2023-05-04T16:05:30.411Z,4.00
2023-05-04T16:10:33.151Z,4.10
2023-05-04T16:15:36.807Z,3.87
2023-05-04T16:20:38.559Z,4.00
2023-05-04T16:25:40.256Z,4.03
2023-05-04T16:30:45.596Z,4.13
2023-05-04T16:35:47.447Z,3.50
2023-05-04T16:40:49.183Z,4.00
2023-05-04T16:45:52.263Z,3.73
2023-05-04T16:50:54.022Z,3.80
2023-05-04T16:55:55.889Z,3.80
2023-05-04T17:00:58.945Z,3.80
2023-05-04T17:06:00.709Z,4.00
2023-05-04T17:11:02.407Z,4.40
2023-05-04T17:16:06.395Z,3.80
2023-05-04T17:21:08.145Z,3.63
2023-05-04T17:26:10.301Z,3.67
2023-05-04T17:31:13.406Z,3.50
2023-05-04T17:36:15.113Z,3.57
2023-05-04T17:41:17.085Z,3.90
2023-05-04T17:46:20.420Z,3.40
2023-05-04T17:51:22.955Z,3.40
2023-05-04T17:56:24.761Z,3.30
2023-05-04T18:01:28.021Z,3.70
2023-05-04T18:06:29.985Z,3.57
2023-05-04T18:11:31.789Z,3.40
2023-05-04T18:16:37.619Z,3.43
2023-05-04T18:21:39.497Z,3.77
2023-05-04T18:26:42.451Z,4.17
2023-05-04T18:31:45.589Z,3.90
2023-05-04T18:36:49.259Z,3.23
2023-05-04T18:41:51.124Z,3.97
2023-05-04T18:46:54.174Z,3.63
2023-05-04T18:51:55.915Z,3.60
2023-05-04T18:56:58.050Z,3.00
2023-05-04T19:02:01.793Z,3.33
2023-05-04T19:07:03.576Z,4.57
2023-05-04T19:12:05.756Z,4.87
2023-05-04T19:17:09.060Z,4.70
2023-05-04T19:22:13.096Z,4.90
2023-05-04T19:27:14.817Z,4.47
2023-05-04T19:32:24.283Z,4.20
2023-05-04T19:37:26.762Z,4.20
2023-05-04T19:42:28.601Z,4.20
2023-05-04T19:47:32.267Z,3.57
2023-05-04T19:52:36.167Z,3.53
2023-05-04T19:57:37.891Z,3.80
2023-05-04T20:02:41.363Z,3.70
2023-05-04T20:07:43.143Z,4.63
2023-05-04T20:12:44.914Z,4.10
2023-05-04T20:17:48.116Z,3.77
2023-05-04T20:22:51.895Z,4.50
2023-05-04T20:27:54.007Z,4.20
2023-05-04T20:32:57.236Z,4.20
2023-05-04T20:37:59.242Z,4.80
2023-05-04T20:43:01.596Z,4.73
2023-05-04T20:48:05.286Z,4.10
2023-05-04T20:53:07.326Z,4.47
2023-05-04T20:58:09.146Z,4.50
2023-05-04T21:03:12.294Z,4.80
2023-05-04T21:08:14.049Z,5.30
2023-05-04T21:13:15.938Z,6.43
2023-05-04T21:18:19.634Z,5.40
2023-05-04T21:23:21.483Z,4.90
2023-05-04T21:28:23.194Z,4.83
2023-05-04T21:33:26.285Z,4.80
2023-05-04T21:38:28.005Z,4.70
2023-05-04T21:43:29.735Z,4.90
2023-05-04T21:48:33.452Z,4.80
2023-05-04T21:53:35.297Z,4.53
2023-05-04T21:58:38.100Z,5.00
2023-05-04T22:03:41.280Z,4.90
2023-05-04T22:08:42.993Z,5.07
2023-05-04T22:13:44.691Z,4.80
2023-05-04T22:18:47.721Z,4.50
2023-05-04T22:23:49.453Z,4.93
2023-05-04T22:28:51.148Z,5.20
2023-05-04T22:33:54.222Z,4.90
2023-05-04T22:38:55.925Z,4.97
2023-05-04T22:43:57.689Z,4.50
2023-05-04T22:49:00.710Z,5.30
2023-05-04T22:54:02.460Z,5.27
2023-05-04T22:59:04.659Z,5.43
2023-05-04T23:04:07.764Z,4.83
2023-05-04T23:09:09.609Z,4.40
2023-05-04T23:14:11.603Z,4.70
2023-05-04T23:19:14.660Z,4.73
2023-05-04T23:24:16.393Z,4.73
2023-05-04T23:29:18.137Z,4.80
2023-05-04T23:34:21.377Z,4.80
2023-05-04T23:39:23.077Z,5.70
2023-05-04T23:44:24.845Z,4.67
2023-05-04T23:49:27.935Z,5.80
2023-05-04T23:54:29.643Z,5.17
2023-05-04T23:59:31.381Z,5.13
